sensor_id;sensor_type;location;lat;lon;timestamp;pressure;altitude;pressure_sealevel;temperature;humidity
4981;BME280;2507;50.392;7.482;2023-02-10T00:00:44;102829.03;;;1.67;65.74
4981;BME280;2507;50.392;7.482;2023-02-10T00:03:09;102830.78;;;1.80;66.26
4981;BME280;2507;50.392;7.482;2023-02-10T00:05:34;102830.81;;;1.99;66.19
4981;BME280;2507;50.392;7.482;2023-02-10T00:08:00;102827.34;;;2.13;65.64
4981;BME280;2507;50.392;7.482;2023-02-10T00:10:25;102835.09;;;2.11;65.08
4981;BME280;2507;50.392;7.482;2023-02-10T00:12:50;102829.09;;;2.00;65.01
4981;BME280;2507;50.392;7.482;2023-02-10T00:15:16;102832.50;;;1.84;65.26
4981;BME280;2507;50.392;7.482;2023-02-10T00:17:41;102834.22;;;1.73;65.63
4981;BME280;2507;50.392;7.482;2023-02-10T00:20:07;102843.69;;;1.66;65.81
4981;BME280;2507;50.392;7.482;2023-02-10T00:22:33;102836.78;;;1.61;65.88
4981;BME280;2507;50.392;7.482;2023-02-10T00:24:58;102843.69;;;1.56;66.48
4981;BME280;2507;50.392;7.482;2023-02-10T00:27:24;102843.72;;;1.71;65.87
4981;BME280;2507;50.392;7.482;2023-02-10T00:29:50;102853.19;;;1.69;66.42
4981;BME280;2507;50.392;7.482;2023-02-10T00:32:16;102860.97;;;1.69;66.09
4981;BME280;2507;50.392;7.482;2023-02-10T00:34:43;102863.50;;;1.58;66.83
4981;BME280;2507;50.392;7.482;2023-02-10T00:37:09;102870.38;;;1.44;68.12
4981;BME280;2507;50.392;7.482;2023-02-10T00:39:34;102873.81;;;1.45;68.90
4981;BME280;2507;50.392;7.482;2023-02-10T00:41:59;102873.00;;;1.59;69.46
4981;BME280;2507;50.392;7.482;2023-02-10T00:44:25;102877.38;;;1.90;68.24
4981;BME280;2507;50.392;7.482;2023-02-10T00:46:50;102880.81;;;2.07;68.16
4981;BME280;2507;50.392;7.482;2023-02-10T00:49:15;102884.31;;;2.13;67.36
4981;BME280;2507;50.392;7.482;2023-02-10T00:51:40;102879.13;;;2.06;67.63
4981;BME280;2507;50.392;7.482;2023-02-10T00:54:06;102880.84;;;2.14;67.78
4981;BME280;2507;50.392;7.482;2023-02-10T00:56:31;102876.53;;;2.20;67.15
4981;BME280;2507;50.392;7.482;2023-02-10T00:58:57;102887.75;;;2.21;66.86
4981;BME280;2507;50.392;7.482;2023-02-10T01:01:22;102888.63;;;2.23;66.94
4981;BME280;2507;50.392;7.482;2023-02-10T01:03:47;102886.88;;;2.37;66.93
4981;BME280;2507;50.392;7.482;2023-02-10T01:06:14;102886.03;;;2.32;66.94
4981;BME280;2507;50.392;7.482;2023-02-10T01:08:42;102898.09;;;2.12;67.40
4981;BME280;2507;50.392;7.482;2023-02-10T01:11:09;102897.22;;;2.02;68.05
4981;BME280;2507;50.392;7.482;2023-02-10T01:13:36;102895.53;;;2.16;68.45
4981;BME280;2507;50.392;7.482;2023-02-10T01:16:08;102899.84;;;2.34;67.62
4981;BME280;2507;50.392;7.482;2023-02-10T01:18:35;102898.97;;;2.63;67.25
4981;BME280;2507;50.392;7.482;2023-02-10T01:21:06;102898.97;;;2.72;66.23
4981;BME280;2507;50.392;7.482;2023-02-10T01:23:32;102893.75;;;2.77;66.39
4981;BME280;2507;50.392;7.482;2023-02-10T01:25:59;102898.94;;;2.80;66.58
4981;BME280;2507;50.392;7.482;2023-02-10T01:28:24;102893.72;;;2.98;66.13
4981;BME280;2507;50.392;7.482;2023-02-10T01:30:49;102896.28;;;3.01;65.49
4981;BME280;2507;50.392;7.482;2023-02-10T01:33:14;102904.06;;;3.01;65.97
4981;BME280;2507;50.392;7.482;2023-02-10T01:35:40;102897.16;;;2.98;65.74
4981;BME280;2507;50.392;7.482;2023-02-10T01:38:05;102905.81;;;2.91;65.85
4981;BME280;2507;50.392;7.482;2023-02-10T01:40:31;102904.97;;;2.88;66.68
4981;BME280;2507;50.392;7.482;2023-02-10T01:42:56;102904.94;;;2.89;66.77
4981;BME280;2507;50.392;7.482;2023-02-10T01:47:58;102909.25;;;3.02;66.35
4981;BME280;2507;50.392;7.482;2023-02-10T01:50:29;102910.13;;;3.01;66.64
4981;BME280;2507;50.392;7.482;2023-02-10T01:52:56;102906.66;;;3.08;66.71
4981;BME280;2507;50.392;7.482;2023-02-10T01:55:26;102912.72;;;3.03;66.64
4981;BME280;2507;50.392;7.482;2023-02-10T01:57:54;102918.81;;;2.73;67.03
4981;BME280;2507;50.392;7.482;2023-02-10T02:00:21;102929.19;;;2.64;68.16
4981;BME280;2507;50.392;7.482;2023-02-10T02:02:48;102923.13;;;2.80;67.47
4981;BME280;2507;50.392;7.482;2023-02-10T02:05:27;102932.59;;;2.95;67.61
4981;BME280;2507;50.392;7.482;2023-02-10T02:07:54;102930.81;;;3.17;66.86
4981;BME280;2507;50.392;7.482;2023-02-10T02:10:23;102916.97;;;3.22;66.04
4981;BME280;2507;50.392;7.482;2023-02-10T02:12:57;102919.59;;;3.04;66.35
4981;BME280;2507;50.392;7.482;2023-02-10T02:15:36;102919.59;;;3.05;67.22
4981;BME280;2507;50.392;7.482;2023-02-10T02:18:12;102916.09;;;3.20;66.39
4981;BME280;2507;50.392;7.482;2023-02-10T02:24:13;102925.72;;;2.64;68.49
4981;BME280;2507;50.392;7.482;2023-02-10T02:32:45;102930.00;;;2.99;67.65
4981;BME280;2507;50.392;7.482;2023-02-10T02:35:19;102935.13;;;3.19;67.07
4981;BME280;2507;50.392;7.482;2023-02-10T02:37:50;102930.78;;;3.32;66.17
4981;BME280;2507;50.392;7.482;2023-02-10T02:40:16;102935.94;;;3.33;66.23
4981;BME280;2507;50.392;7.482;2023-02-10T02:42:42;102925.56;;;3.38;66.34
4981;BME280;2507;50.392;7.482;2023-02-10T02:45:12;102928.09;;;3.51;65.86
4981;BME280;2507;50.392;7.482;2023-02-10T02:48:07;102926.38;;;3.52;64.75
4981;BME280;2507;50.392;7.482;2023-02-10T02:50:49;102922.09;;;3.37;65.52
4981;BME280;2507;50.392;7.482;2023-02-10T02:53:57;102923.84;;;3.38;65.44
4981;BME280;2507;50.392;7.482;2023-02-10T02:59:18;102918.66;;;3.34;66.41
4981;BME280;2507;50.392;7.482;2023-02-10T03:01:50;102920.28;;;3.53;65.71
4981;BME280;2507;50.392;7.482;2023-02-10T03:04:17;102913.44;;;3.44;65.98
4981;BME280;2507;50.392;7.482;2023-02-10T03:06:43;102921.16;;;3.58;64.60
4981;BME280;2507;50.392;7.482;2023-02-10T03:09:09;102918.66;;;3.32;65.29
4981;BME280;2507;50.392;7.482;2023-02-10T03:11:34;102922.16;;;3.21;65.49
4981;BME280;2507;50.392;7.482;2023-02-10T03:14:00;102918.75;;;2.99;66.10
4981;BME280;2507;50.392;7.482;2023-02-10T03:16:25;102930.03;;;2.84;66.88
4981;BME280;2507;50.392;7.482;2023-02-10T03:18:50;102933.47;;;2.86;67.36
4981;BME280;2507;50.392;7.482;2023-02-10T03:21:16;102923.06;;;3.07;67.11
4981;BME280;2507;50.392;7.482;2023-02-10T03:23:41;102937.69;;;3.36;66.40
4981;BME280;2507;50.392;7.482;2023-02-10T03:26:06;102942.13;;;2.88;66.82
4981;BME280;2507;50.392;7.482;2023-02-10T03:28:32;102951.66;;;2.58;68.29
4981;BME280;2507;50.392;7.482;2023-02-10T03:30:57;102944.75;;;2.52;69.05
4981;BME280;2507;50.392;7.482;2023-02-10T03:33:26;102955.13;;;2.69;69.05
4981;BME280;2507;50.392;7.482;2023-02-10T03:35:51;102942.13;;;2.90;68.24
4981;BME280;2507;50.392;7.482;2023-02-10T03:38:16;102943.78;;;3.17;67.39
4981;BME280;2507;50.392;7.482;2023-02-10T03:40:41;102944.63;;;3.28;67.11
4981;BME280;2507;50.392;7.482;2023-02-10T03:43:07;102941.13;;;3.38;66.63
4981;BME280;2507;50.392;7.482;2023-02-10T03:45:32;102952.38;;;3.34;65.99
4981;BME280;2507;50.392;7.482;2023-02-10T03:47:58;102949.78;;;3.38;66.41
4981;BME280;2507;50.392;7.482;2023-02-10T03:50:24;102950.63;;;3.39;65.83
4981;BME280;2507;50.392;7.482;2023-02-10T03:52:49;102943.69;;;3.44;66.42
4981;BME280;2507;50.392;7.482;2023-02-10T03:55:15;102952.34;;;3.43;66.00
4981;BME280;2507;50.392;7.482;2023-02-10T03:57:43;102973.97;;;3.43;66.05
4981;BME280;2507;50.392;7.482;2023-02-10T04:00:09;102954.94;;;3.43;66.47
4981;BME280;2507;50.392;7.482;2023-02-10T04:02:34;102948.00;;;3.48;66.84
4981;BME280;2507;50.392;7.482;2023-02-10T04:05:00;102957.50;;;3.52;65.99
4981;BME280;2507;50.392;7.482;2023-02-10T04:07:25;102955.78;;;3.54;66.34
4981;BME280;2507;50.392;7.482;2023-02-10T04:09:50;102956.66;;;3.42;65.85
4981;BME280;2507;50.392;7.482;2023-02-10T04:12:15;102957.59;;;3.31;66.33
4981;BME280;2507;50.392;7.482;2023-02-10T04:14:41;102956.75;;;3.15;66.76
4981;BME280;2507;50.392;7.482;2023-02-10T04:17:06;102961.06;;;3.24;66.92
4981;BME280;2507;50.392;7.482;2023-02-10T04:19:31;102967.13;;;3.17;67.07
4981;BME280;2507;50.392;7.482;2023-02-10T04:21:56;102967.13;;;3.21;67.03
4981;BME280;2507;50.392;7.482;2023-02-10T04:24:22;102965.41;;;3.17;66.61
4981;BME280;2507;50.392;7.482;2023-02-10T04:26:47;102965.44;;;3.13;67.04
4981;BME280;2507;50.392;7.482;2023-02-10T04:29:13;102956.78;;;3.18;66.83
4981;BME280;2507;50.392;7.482;2023-02-10T04:31:38;102960.22;;;3.19;67.04
4981;BME280;2507;50.392;7.482;2023-02-10T04:34:03;102955.88;;;3.21;66.66
4981;BME280;2507;50.392;7.482;2023-02-10T04:36:28;102952.41;;;3.26;67.15
4981;BME280;2507;50.392;7.482;2023-02-10T04:38:54;102950.63;;;3.43;66.31
4981;BME280;2507;50.392;7.482;2023-02-10T04:41:19;102947.97;;;3.57;66.47
4981;BME280;2507;50.392;7.482;2023-02-10T04:43:44;102948.75;;;3.77;65.21
4981;BME280;2507;50.392;7.482;2023-02-10T04:46:09;102949.56;;;3.82;65.30
4981;BME280;2507;50.392;7.482;2023-02-10T04:48:35;102944.38;;;3.82;64.79
4981;BME280;2507;50.392;7.482;2023-02-10T04:51:06;102955.69;;;3.73;65.12
4981;BME280;2507;50.392;7.482;2023-02-10T04:53:31;102974.84;;;3.45;65.55
4981;BME280;2507;50.392;7.482;2023-02-10T04:55:56;102974.94;;;3.06;66.79
4981;BME280;2507;50.392;7.482;2023-02-10T04:58:22;102974.06;;;2.96;68.09
4981;BME280;2507;50.392;7.482;2023-02-10T05:00:47;102987.88;;;3.17;67.25
4981;BME280;2507;50.392;7.482;2023-02-10T05:03:12;102983.56;;;3.22;67.40
4981;BME280;2507;50.392;7.482;2023-02-10T05:05:38;102974.91;;;3.23;67.51
4981;BME280;2507;50.392;7.482;2023-02-10T05:08:03;102962.75;;;3.34;66.55
4981;BME280;2507;50.392;7.482;2023-02-10T05:10:28;102955.84;;;3.36;66.79
4981;BME280;2507;50.392;7.482;2023-02-10T05:12:54;102967.06;;;3.41;66.77
4981;BME280;2507;50.392;7.482;2023-02-10T05:15:19;102960.13;;;3.47;66.15
4981;BME280;2507;50.392;7.482;2023-02-10T05:17:44;102942.72;;;3.66;65.63
4981;BME280;2507;50.392;7.482;2023-02-10T05:20:10;102946.31;;;3.41;65.87
4981;BME280;2507;50.392;7.482;2023-02-10T05:22:36;102933.41;;;3.17;66.65
4981;BME280;2507;50.392;7.482;2023-02-10T05:25:01;102931.66;;;3.25;66.96
4981;BME280;2507;50.392;7.482;2023-02-10T05:27:27;102941.13;;;3.38;65.94
4981;BME280;2507;50.392;7.482;2023-02-10T05:29:52;102931.59;;;3.43;65.47
4981;BME280;2507;50.392;7.482;2023-02-10T05:32:18;102928.22;;;3.17;65.50
4981;BME280;2507;50.392;7.482;2023-02-10T05:34:43;102944.69;;;3.13;66.06
4981;BME280;2507;50.392;7.482;2023-02-10T05:37:08;102942.09;;;3.08;66.15
4981;BME280;2507;50.392;7.482;2023-02-10T05:39:33;102941.25;;;2.91;66.15
4981;BME280;2507;50.392;7.482;2023-02-10T05:41:59;102955.97;;;2.45;67.86
4981;BME280;2507;50.392;7.482;2023-02-10T05:44:27;102951.63;;;2.14;69.20
4981;BME280;2507;50.392;7.482;2023-02-10T05:46:52;102944.69;;;2.05;70.29
4981;BME280;2507;50.392;7.482;2023-02-10T05:49:18;102948.97;;;1.90;71.46
4981;BME280;2507;50.392;7.482;2023-02-10T05:51:44;102955.88;;;1.86;72.67
4981;BME280;2507;50.392;7.482;2023-02-10T05:54:09;102986.94;;;1.98;71.70
4981;BME280;2507;50.392;7.482;2023-02-10T05:56:35;102973.16;;;1.90;72.68
4981;BME280;2507;50.392;7.482;2023-02-10T05:59:00;102963.69;;;2.12;71.89
4981;BME280;2507;50.392;7.482;2023-02-10T06:01:26;102961.09;;;2.15;71.67
4981;BME280;2507;50.392;7.482;2023-02-10T06:03:52;102972.34;;;2.22;71.92
4981;BME280;2507;50.392;7.482;2023-02-10T06:06:17;102974.91;;;2.20;71.88
4981;BME280;2507;50.392;7.482;2023-02-10T06:08:42;102974.94;;;2.22;71.61
4981;BME280;2507;50.392;7.482;2023-02-10T06:11:08;102973.22;;;2.28;71.89
4981;BME280;2507;50.392;7.482;2023-02-10T06:13:33;102969.78;;;2.35;70.93
4981;BME280;2507;50.392;7.482;2023-02-10T06:15:59;102974.94;;;2.29;70.67
4981;BME280;2507;50.392;7.482;2023-02-10T06:18:27;102988.75;;;2.21;71.19
4981;BME280;2507;50.392;7.482;2023-02-10T06:20:52;102987.00;;;2.14;71.30
4981;BME280;2507;50.392;7.482;2023-02-10T06:23:17;103001.66;;;2.13;71.23
4981;BME280;2507;50.392;7.482;2023-02-10T06:25:44;102993.91;;;2.19;70.44
4981;BME280;2507;50.392;7.482;2023-02-10T06:28:09;102999.06;;;2.12;70.75
4981;BME280;2507;50.392;7.482;2023-02-10T06:30:35;102994.75;;;2.03;70.18
4981;BME280;2507;50.392;7.482;2023-02-10T06:33:00;102999.06;;;1.98;70.22
4981;BME280;2507;50.392;7.482;2023-02-10T06:35:25;103003.34;;;1.88;70.31
4981;BME280;2507;50.392;7.482;2023-02-10T06:37:51;102998.97;;;1.77;70.65
4981;BME280;2507;50.392;7.482;2023-02-10T06:40:16;102998.09;;;1.69;70.57
4981;BME280;2507;50.392;7.482;2023-02-10T06:42:41;103001.50;;;1.62;71.00
4981;BME280;2507;50.392;7.482;2023-02-10T06:45:07;103003.19;;;1.52;71.07
4981;BME280;2507;50.392;7.482;2023-02-10T06:47:34;103016.06;;;1.43;71.29
4981;BME280;2507;50.392;7.482;2023-02-10T06:50:00;103001.44;;;1.47;70.55
4981;BME280;2507;50.392;7.482;2023-02-10T06:52:25;103009.97;;;1.37;70.49
4981;BME280;2507;50.392;7.482;2023-02-10T06:54:51;103009.03;;;1.23;71.77
4981;BME280;2507;50.392;7.482;2023-02-10T06:57:17;103001.28;;;1.21;71.83
4981;BME280;2507;50.392;7.482;2023-02-10T06:59:43;103013.31;;;1.21;71.61
4981;BME280;2507;50.392;7.482;2023-02-10T07:02:12;103014.16;;;1.14;71.39
4981;BME280;2507;50.392;7.482;2023-02-10T07:04:37;103014.19;;;1.21;72.14
4981;BME280;2507;50.392;7.482;2023-02-10T07:07:03;103021.00;;;1.10;72.07
4981;BME280;2507;50.392;7.482;2023-02-10T07:09:29;103024.44;;;1.08;72.12
4981;BME280;2507;50.392;7.482;2023-02-10T07:11:54;103024.47;;;1.12;72.09
4981;BME280;2507;50.392;7.482;2023-02-10T07:14:20;103023.63;;;1.15;71.62
4981;BME280;2507;50.392;7.482;2023-02-10T07:16:45;103018.53;;;1.28;71.65
4981;BME280;2507;50.392;7.482;2023-02-10T07:19:11;103020.25;;;1.29;71.34
4981;BME280;2507;50.392;7.482;2023-02-10T07:21:36;103022.91;;;1.34;71.15
4981;BME280;2507;50.392;7.482;2023-02-10T07:24:03;103028.13;;;1.46;71.74
4981;BME280;2507;50.392;7.482;2023-02-10T07:26:29;103029.03;;;1.54;71.04
4981;BME280;2507;50.392;7.482;2023-02-10T07:28:54;103031.72;;;1.72;71.59
4981;BME280;2507;50.392;7.482;2023-02-10T07:31:19;103042.19;;;1.99;71.84
4981;BME280;2507;50.392;7.482;2023-02-10T07:33:44;103037.91;;;2.13;70.49
4981;BME280;2507;50.392;7.482;2023-02-10T07:36:10;103050.97;;;2.54;69.50
4981;BME280;2507;50.392;7.482;2023-02-10T07:38:36;103062.22;;;2.96;66.35
4981;BME280;2507;50.392;7.482;2023-02-10T07:41:04;103062.22;;;3.30;66.79
4981;BME280;2507;50.392;7.482;2023-02-10T07:43:29;103057.84;;;3.56;65.04
4981;BME280;2507;50.392;7.482;2023-02-10T07:45:55;103050.00;;;3.74;64.25
4981;BME280;2507;50.392;7.482;2023-02-10T07:48:20;103043.78;;;4.09;64.70
4981;BME280;2507;50.392;7.482;2023-02-10T07:50:46;103075.06;;;3.87;63.04
4981;BME280;2507;50.392;7.482;2023-02-10T07:53:12;103055.25;;;3.50;63.77
4981;BME280;2507;50.392;7.482;2023-02-10T07:55:38;103050.94;;;3.58;64.10
4981;BME280;2507;50.392;7.482;2023-02-10T07:58:04;103060.44;;;3.57;64.14
4981;BME280;2507;50.392;7.482;2023-02-10T08:00:29;103065.56;;;3.84;64.85
4981;BME280;2507;50.392;7.482;2023-02-10T08:02:55;103059.41;;;4.06;63.93
4981;BME280;2507;50.392;7.482;2023-02-10T08:05:20;103061.09;;;4.18;63.91
4981;BME280;2507;50.392;7.482;2023-02-10T08:07:46;103050.66;;;4.27;63.90
4981;BME280;2507;50.392;7.482;2023-02-10T08:10:11;103064.41;;;4.43;63.45
4981;BME280;2507;50.392;7.482;2023-02-10T08:12:37;103062.63;;;4.49;63.86
4981;BME280;2507;50.392;7.482;2023-02-10T08:15:02;103070.34;;;4.63;63.76
4981;BME280;2507;50.392;7.482;2023-02-10T08:17:28;103066.84;;;4.68;63.97
4981;BME280;2507;50.392;7.482;2023-02-10T08:19:53;103068.44;;;4.86;63.93
4981;BME280;2507;50.392;7.482;2023-02-10T08:22:18;103065.81;;;4.90;63.85
4981;BME280;2507;50.392;7.482;2023-02-10T08:24:44;103085.13;;;4.56;63.93
4981;BME280;2507;50.392;7.482;2023-02-10T08:27:09;103058.22;;;4.63;64.48
4981;BME280;2507;50.392;7.482;2023-02-10T08:29:34;103055.59;;;4.66;64.27
4981;BME280;2507;50.392;7.482;2023-02-10T08:32:00;103049.44;;;4.78;64.17
4981;BME280;2507;50.392;7.482;2023-02-10T08:34:25;103061.78;;;4.50;64.38
4981;BME280;2507;50.392;7.482;2023-02-10T08:36:50;103060.88;;;4.56;65.09
4981;BME280;2507;50.392;7.482;2023-02-10T08:39:16;103093.69;;;4.76;64.55
4981;BME280;2507;50.392;7.482;2023-02-10T08:41:42;103056.22;;;5.00;64.18
4981;BME280;2507;50.392;7.482;2023-02-10T08:44:07;103059.38;;;5.32;63.41
4981;BME280;2507;50.392;7.482;2023-02-10T08:46:33;103056.44;;;5.62;61.44
4981;BME280;2507;50.392;7.482;2023-02-10T08:48:59;103052.81;;;5.77;61.58
4981;BME280;2507;50.392;7.482;2023-02-10T08:51:26;103050.41;;;5.60;61.31
4981;BME280;2507;50.392;7.482;2023-02-10T08:53:52;103054.75;;;5.61;62.11
4981;BME280;2507;50.392;7.482;2023-02-10T08:56:17;103052.72;;;5.89;60.43
4981;BME280;2507;50.392;7.482;2023-02-10T08:58:44;103062.66;;;5.49;61.27
4981;BME280;2507;50.392;7.482;2023-02-10T09:01:14;103045.44;;;5.39;61.78
4981;BME280;2507;50.392;7.482;2023-02-10T09:03:41;103055.06;;;5.33;62.10
4981;BME280;2507;50.392;7.482;2023-02-10T09:06:19;103044.69;;;5.25;62.55
4981;BME280;2507;50.392;7.482;2023-02-10T09:08:45;103060.47;;;5.05;62.35
4981;BME280;2507;50.392;7.482;2023-02-10T09:11:13;103046.66;;;5.00;62.21
4981;BME280;2507;50.392;7.482;2023-02-10T09:13:38;103047.56;;;4.95;62.12
4981;BME280;2507;50.392;7.482;2023-02-10T09:16:04;103047.75;;;4.74;63.52
4981;BME280;2507;50.392;7.482;2023-02-10T09:18:29;103048.56;;;4.77;63.73
4981;BME280;2507;50.392;7.482;2023-02-10T09:20:57;103057.28;;;4.76;63.42
4981;BME280;2507;50.392;7.482;2023-02-10T09:23:22;103066.69;;;4.88;63.40
4981;BME280;2507;50.392;7.482;2023-02-10T09:25:59;103059.69;;;4.97;62.82
4981;BME280;2507;50.392;7.482;2023-02-10T09:28:25;103061.50;;;4.86;62.88
4981;BME280;2507;50.392;7.482;2023-02-10T09:30:51;103058.09;;;4.78;62.39
4981;BME280;2507;50.392;7.482;2023-02-10T09:33:16;103059.94;;;4.63;63.69
4981;BME280;2507;50.392;7.482;2023-02-10T09:35:42;103061.72;;;4.58;63.20
4981;BME280;2507;50.392;7.482;2023-02-10T09:38:08;103063.50;;;4.50;63.83
4981;BME280;2507;50.392;7.482;2023-02-10T09:40:44;103067.78;;;4.55;63.79
4981;BME280;2507;50.392;7.482;2023-02-10T09:45:47;103067.63;;;4.79;63.97
4981;BME280;2507;50.392;7.482;2023-02-10T09:51:37;103067.78;;;5.60;60.81
4981;BME280;2507;50.392;7.482;2023-02-10T09:54:09;103071.91;;;5.83;59.50
4981;BME280;2507;50.392;7.482;2023-02-10T09:56:36;103093.38;;;6.03;58.90
4981;BME280;2507;50.392;7.482;2023-02-10T09:59:02;103080.78;;;6.36;58.57
4981;BME280;2507;50.392;7.482;2023-02-10T10:01:37;103086.56;;;6.57;57.05
4981;BME280;2507;50.392;7.482;2023-02-10T10:06:46;103085.53;;;6.05;57.73
4981;BME280;2507;50.392;7.482;2023-02-10T10:09:29;103084.91;;;5.83;58.76
4981;BME280;2507;50.392;7.482;2023-02-10T10:11:59;103081.63;;;5.65;59.33
4981;BME280;2507;50.392;7.482;2023-02-10T10:14:27;103076.25;;;5.77;59.20
4981;BME280;2507;50.392;7.482;2023-02-10T10:31:03;103085.19;;;6.31;58.33
4981;BME280;2507;50.392;7.482;2023-02-10T10:33:56;103081.66;;;6.33;58.83
4981;BME280;2507;50.392;7.482;2023-02-10T10:36:32;103088.94;;;6.72;59.10
4981;BME280;2507;50.392;7.482;2023-02-10T10:39:01;103086.34;;;7.24;57.78
4981;BME280;2507;50.392;7.482;2023-02-10T10:41:31;103083.13;;;7.59;56.57
4981;BME280;2507;50.392;7.482;2023-02-10T10:44:00;103072.84;;;7.50;56.71
4981;BME280;2507;50.392;7.482;2023-02-10T10:48:54;103091.75;;;7.13;57.67
4981;BME280;2507;50.392;7.482;2023-02-10T10:51:20;103080.16;;;7.30;58.16
4981;BME280;2507;50.392;7.482;2023-02-10T10:53:50;103075.22;;;7.63;58.30
4981;BME280;2507;50.392;7.482;2023-02-10T10:59:21;103057.50;;;8.18;56.73
4981;BME280;2507;50.392;7.482;2023-02-10T11:01:51;103047.16;;;8.14;57.16
4981;BME280;2507;50.392;7.482;2023-02-10T11:04:23;103052.19;;;8.23;56.43
4981;BME280;2507;50.392;7.482;2023-02-10T11:06:52;103055.56;;;8.30;56.50
4981;BME280;2507;50.392;7.482;2023-02-10T11:09:37;103057.28;;;8.31;56.92
4981;BME280;2507;50.392;7.482;2023-02-10T11:12:23;103048.38;;;8.39;56.34
4981;BME280;2507;50.392;7.482;2023-02-10T11:14:51;103044.50;;;8.55;56.54
4981;BME280;2507;50.392;7.482;2023-02-10T11:17:39;103039.06;;;8.64;56.53
4981;BME280;2507;50.392;7.482;2023-02-10T11:22:56;103046.50;;;8.81;55.53
4981;BME280;2507;50.392;7.482;2023-02-10T11:25:28;103034.56;;;8.69;56.34
4981;BME280;2507;50.392;7.482;2023-02-10T11:27:54;103052.41;;;8.90;56.29
4981;BME280;2507;50.392;7.482;2023-02-10T11:30:29;103040.41;;;9.15;55.43
4981;BME280;2507;50.392;7.482;2023-02-10T11:32:56;103028.72;;;9.28;55.02
4981;BME280;2507;50.392;7.482;2023-02-10T11:35:22;103036.13;;;9.11;54.97
4981;BME280;2507;50.392;7.482;2023-02-10T11:38:20;103029.34;;;9.04;54.81
4981;BME280;2507;50.392;7.482;2023-02-10T11:40:51;103027.13;;;8.88;55.63
4981;BME280;2507;50.392;7.482;2023-02-10T11:43:17;103034.06;;;8.90;55.77
4981;BME280;2507;50.392;7.482;2023-02-10T11:45:58;103027.78;;;8.97;55.62
4981;BME280;2507;50.392;7.482;2023-02-10T11:48:25;103026.63;;;9.07;55.93
4981;BME280;2507;50.392;7.482;2023-02-10T11:53:33;103020.75;;;9.32;54.90
4981;BME280;2507;50.392;7.482;2023-02-10T11:58:43;103003.47;;;9.57;53.71
4981;BME280;2507;50.392;7.482;2023-02-10T12:04:10;103009.31;;;9.36;54.58
4981;BME280;2507;50.392;7.482;2023-02-10T12:12:11;103000.22;;;9.49;54.36
4981;BME280;2507;50.392;7.482;2023-02-10T12:14:53;102997.50;;;9.52;54.27
4981;BME280;2507;50.392;7.482;2023-02-10T12:17:28;102995.28;;;9.38;54.86
4981;BME280;2507;50.392;7.482;2023-02-10T12:31:17;102973.69;;;8.63;56.77
4981;BME280;2507;50.392;7.482;2023-02-10T12:34:08;102972.16;;;8.54;57.37
4981;BME280;2507;50.392;7.482;2023-02-10T12:39:22;102969.97;;;9.05;56.08
4981;BME280;2507;50.392;7.482;2023-02-10T12:47:30;102960.91;;;9.18;56.05
4981;BME280;2507;50.392;7.482;2023-02-10T12:50:22;102961.84;;;9.46;55.05
4981;BME280;2507;50.392;7.482;2023-02-10T12:53:12;102970.50;;;9.48;54.93
4981;BME280;2507;50.392;7.482;2023-02-10T12:55:50;102960.81;;;9.52;54.92
4981;BME280;2507;50.392;7.482;2023-02-10T12:58:23;102962.63;;;9.79;54.61
4981;BME280;2507;50.392;7.482;2023-02-10T13:00:55;102954.06;;;10.01;53.83
4981;BME280;2507;50.392;7.482;2023-02-10T13:03:28;102946.00;;;10.09;53.70
4981;BME280;2507;50.392;7.482;2023-02-10T13:06:16;102955.94;;;9.98;53.33
4981;BME280;2507;50.392;7.482;2023-02-10T13:08:48;102962.28;;;9.91;53.92
4981;BME280;2507;50.392;7.482;2023-02-10T13:11:51;102965.16;;;10.11;53.46
4981;BME280;2507;50.392;7.482;2023-02-10T13:14:25;102952.56;;;9.93;53.62
4981;BME280;2507;50.392;7.482;2023-02-10T13:16:57;102956.81;;;9.97;53.56
4981;BME280;2507;50.392;7.482;2023-02-10T13:19:53;102949.34;;;9.85;53.79
4981;BME280;2507;50.392;7.482;2023-02-10T13:22:44;102947.06;;;9.73;53.92
4981;BME280;2507;50.392;7.482;2023-02-10T13:25:16;102950.97;;;9.60;54.34
4981;BME280;2507;50.392;7.482;2023-02-10T13:28:08;102945.75;;;9.58;54.57
4981;BME280;2507;50.392;7.482;2023-02-10T13:36:16;102941.22;;;9.34;55.61
4981;BME280;2507;50.392;7.482;2023-02-10T13:38:42;102944.34;;;9.47;55.41
4981;BME280;2507;50.392;7.482;2023-02-10T13:41:26;102936.69;;;9.70;55.04
4981;BME280;2507;50.392;7.482;2023-02-10T13:47:22;102938.13;;;9.80;54.15
4981;BME280;2507;50.392;7.482;2023-02-10T13:49:55;102924.81;;;9.57;54.72
4981;BME280;2507;50.392;7.482;2023-02-10T13:52:27;102922.69;;;9.42;55.47
4981;BME280;2507;50.392;7.482;2023-02-10T13:54:58;102922.69;;;9.42;55.10
4981;BME280;2507;50.392;7.482;2023-02-10T13:57:27;102914.00;;;9.40;55.23
4981;BME280;2507;50.392;7.482;2023-02-10T13:59:53;102918.69;;;9.28;55.63
4981;BME280;2507;50.392;7.482;2023-02-10T14:02:22;102910.38;;;9.13;55.91
4981;BME280;2507;50.392;7.482;2023-02-10T14:04:50;102894.88;;;9.05;56.21
4981;BME280;2507;50.392;7.482;2023-02-10T14:09:41;102893.16;;;9.04;56.36
4981;BME280;2507;50.392;7.482;2023-02-10T14:12:26;102899.94;;;9.11;56.12
4981;BME280;2507;50.392;7.482;2023-02-10T14:14:51;102921.25;;;8.99;56.47
4981;BME280;2507;50.392;7.482;2023-02-10T14:19:47;102896.94;;;8.94;56.50
4981;BME280;2507;50.392;7.482;2023-02-10T14:22:30;102896.50;;;9.09;55.95
4981;BME280;2507;50.392;7.482;2023-02-10T14:25:19;102908.69;;;8.80;56.75
4981;BME280;2507;50.392;7.482;2023-02-10T14:27:49;102902.97;;;8.64;57.62
4981;BME280;2507;50.392;7.482;2023-02-10T14:30:20;102897.97;;;8.55;57.86
4981;BME280;2507;50.392;7.482;2023-02-10T14:32:46;102896.41;;;8.48;58.02
4981;BME280;2507;50.392;7.482;2023-02-10T14:35:25;102885.16;;;8.45;57.87
4981;BME280;2507;50.392;7.482;2023-02-10T14:37:53;102885.41;;;8.36;58.35
4981;BME280;2507;50.392;7.482;2023-02-10T14:40:21;102885.69;;;8.25;59.09
4981;BME280;2507;50.392;7.482;2023-02-10T14:42:47;102876.91;;;8.26;58.95
4981;BME280;2507;50.392;7.482;2023-02-10T14:45:24;102879.06;;;8.07;59.35
4981;BME280;2507;50.392;7.482;2023-02-10T14:47:53;102874.78;;;8.05;59.46
4981;BME280;2507;50.392;7.482;2023-02-10T14:50:31;102884.38;;;8.04;59.21
4981;BME280;2507;50.392;7.482;2023-02-10T14:52:58;102878.72;;;7.86;59.91
4981;BME280;2507;50.392;7.482;2023-02-10T14:55:30;102879.19;;;7.66;60.63
4981;BME280;2507;50.392;7.482;2023-02-10T14:58:12;102875.69;;;7.66;60.74
4981;BME280;2507;50.392;7.482;2023-02-10T15:00:39;102875.66;;;7.67;60.96
4981;BME280;2507;50.392;7.482;2023-02-10T15:03:05;102873.44;;;7.51;61.56